Time;durP1;ratioP1;P1;durP2;ratioP2;P2;SDS_P1;SDS_P2;PMS_P1;PMS_P2;Temp;Humidity;BMP_temperature;BMP_pressure;BME280_temperature;BME280_humidity;BME280_pressure;Samples;Min_cycle;Max_cycle;Signal;HPM_P1;HPM_P2
2024/01/12 00:01:48;;;;;;;12.77;8.90;;;-1.70;99.90;;;;;;5068216;28;20250;-53
2024/01/12 00:04:16;;;;;;;10.77;9.30;;;-1.70;99.90;;;;;;5051706;28;20667;-45
2024/01/12 00:06:45;;;;;;;11.40;8.27;;;-1.80;99.90;;;;;;5074791;28;20218;-52
2024/01/12 00:09:13;;;;;;;12.60;9.07;;;-1.70;99.90;;;;;;5067096;28;20242;-50
2024/01/12 00:11:39;;;;;;;10.40;7.90;;;-1.80;99.90;;;;;;5077305;28;20192;-54
2024/01/12 00:14:06;;;;;;;9.57;7.73;;;-1.80;99.90;;;;;;5080643;28;20191;-48
2024/01/12 00:16:33;;;;;;;12.70;8.30;;;-1.80;99.90;;;;;;5081889;28;20643;-53
2024/01/12 00:19:00;;;;;;;12.97;8.60;;;-1.70;99.90;;;;;;5037938;28;21802;-49
2024/01/12 00:21:27;;;;;;;12.67;9.47;;;-1.70;99.90;;;;;;5074351;28;20201;-49
2024/01/12 00:23:55;;;;;;;12.27;7.97;;;-1.80;99.90;;;;;;5057353;28;20289;-45
2024/01/12 00:26:21;;;;;;;13.07;8.83;;;-1.90;99.90;;;;;;5080939;28;20220;-50
2024/01/12 00:28:48;;;;;;;11.87;8.53;;;-1.90;99.90;;;;;;5079475;28;20187;-46
2024/01/12 00:31:15;;;;;;;13.33;8.33;;;-2.00;99.90;;;;;;5074206;28;20196;-50
2024/01/12 00:33:42;;;;;;;10.33;8.13;;;-2.00;99.90;;;;;;5066335;28;21022;-51
2024/01/12 00:36:09;;;;;;;10.17;8.50;;;-2.00;99.90;;;;;;5045049;28;20300;-48
2024/01/12 00:38:36;;;;;;;11.37;8.53;;;-2.00;99.90;;;;;;5067698;28;20216;-47
2024/01/12 00:41:04;;;;;;;12.33;8.37;;;-2.00;99.90;;;;;;5081047;28;20222;-49
2024/01/12 00:43:31;;;;;;;10.13;7.83;;;-2.00;99.90;;;;;;5078876;28;20606;-50
2024/01/12 00:45:58;;;;;;;9.37;8.23;;;-2.10;99.90;;;;;;5073097;28;20923;-48
2024/01/12 00:48:25;;;;;;;13.70;8.57;;;-2.10;99.90;;;;;;5074559;28;20197;-51
2024/01/12 00:50:52;;;;;;;10.77;8.30;;;-2.10;99.90;;;;;;5036360;28;20287;-45
2024/01/12 00:53:19;;;;;;;10.60;8.40;;;-2.00;99.90;;;;;;5079728;28;20250;-53
2024/01/12 00:55:45;;;;;;;10.53;8.00;;;-2.00;99.90;;;;;;5074228;28;20243;-48
2024/01/12 00:58:13;;;;;;;12.57;8.67;;;-2.10;99.90;;;;;;5082012;28;20694;-50
2024/01/12 01:00:40;;;;;;;8.77;7.70;;;-2.10;99.90;;;;;;5069206;28;20211;-49
2024/01/12 01:03:07;;;;;;;14.67;8.37;;;-2.10;99.90;;;;;;5073719;28;20366;-46
2024/01/12 01:05:34;;;;;;;9.40;8.40;;;-2.00;99.90;;;;;;5063791;28;20207;-48
2024/01/12 01:08:01;;;;;;;11.13;8.87;;;-2.00;99.90;;;;;;5046522;28;20658;-47
2024/01/12 01:10:27;;;;;;;20.20;9.13;;;-2.00;99.90;;;;;;5069652;28;20274;-54
2024/01/12 01:12:54;;;;;;;9.63;7.90;;;-2.00;99.90;;;;;;5080614;28;20196;-47
2024/01/12 01:15:22;;;;;;;8.70;7.63;;;-2.10;99.90;;;;;;5076290;28;20200;-51
2024/01/12 01:17:50;;;;;;;10.17;7.93;;;-2.20;99.90;;;;;;5064069;28;20963;-50
2024/01/12 01:20:16;;;;;;;11.70;8.20;;;-2.20;99.90;;;;;;5070244;28;20206;-52
2024/01/12 01:22:43;;;;;;;9.03;8.13;;;-2.20;99.90;;;;;;5049965;28;21117;-44
2024/01/12 01:25:11;;;;;;;8.57;7.80;;;-2.20;99.90;;;;;;5074005;28;20201;-49
2024/01/12 01:27:38;;;;;;;9.87;8.03;;;-2.20;99.90;;;;;;5077924;28;21005;-46
2024/01/12 01:30:06;;;;;;;8.90;7.43;;;-2.30;99.90;;;;;;5075829;28;20208;-49
2024/01/12 01:32:35;;;;;;;10.47;7.93;;;-2.40;99.90;;;;;;5061853;28;20218;-48
2024/01/12 01:35:02;;;;;;;8.43;7.33;;;-2.30;99.90;;;;;;5081229;28;20199;-50
2024/01/12 01:37:29;;;;;;;12.20;7.43;;;-2.40;99.90;;;;;;5045982;28;20243;-52
2024/01/12 01:39:56;;;;;;;17.47;7.93;;;-2.50;99.90;;;;;;5068944;28;20209;-47
2024/01/12 01:42:22;;;;;;;9.77;7.93;;;-2.50;99.90;;;;;;5078973;28;20218;-53
2024/01/12 01:44:49;;;;;;;11.03;8.20;;;-2.50;99.90;;;;;;5072232;28;20203;-48
2024/01/12 01:47:16;;;;;;;12.60;7.97;;;-2.60;99.90;;;;;;5076541;28;20302;-50
2024/01/12 01:49:45;;;;;;;9.57;7.67;;;-2.60;99.90;;;;;;5072530;28;20198;-49
2024/01/12 01:52:12;;;;;;;9.20;7.17;;;-2.60;99.90;;;;;;5071851;28;20221;-46
2024/01/12 01:54:39;;;;;;;10.77;7.60;;;-2.50;99.90;;;;;;5040847;28;21029;-51
2024/01/12 01:57:07;;;;;;;9.23;7.23;;;-2.50;99.90;;;;;;5076452;28;20216;-50
2024/01/12 01:59:35;;;;;;;10.20;7.77;;;-2.60;99.90;;;;;;5069933;28;20227;-48
2024/01/12 02:02:05;;;;;;;9.60;7.40;;;-2.60;99.90;;;;;;5080263;28;20210;-45
2024/01/12 02:04:32;;;;;;;10.63;7.30;;;-2.70;99.90;;;;;;5073471;28;20210;-53
2024/01/12 02:07:00;;;;;;;9.70;7.60;;;-2.70;99.90;;;;;;5075372;28;20227;-48
2024/01/12 02:09:28;;;;;;;12.47;8.57;;;-2.70;99.90;;;;;;5046891;28;20209;-53
2024/01/12 02:11:55;;;;;;;13.20;7.73;;;-2.60;99.90;;;;;;5076808;28;20282;-51
2024/01/12 02:14:22;;;;;;;17.33;9.00;;;-2.60;99.90;;;;;;5077678;28;20218;-52
2024/01/12 02:16:49;;;;;;;14.53;8.40;;;-2.60;99.90;;;;;;5083060;28;20460;-45
2024/01/12 02:19:16;;;;;;;12.23;7.60;;;-2.60;99.90;;;;;;5076240;28;20222;-54
2024/01/12 02:21:44;;;;;;;19.97;8.07;;;-2.60;99.90;;;;;;5081709;28;20307;-49
2024/01/12 02:24:11;;;;;;;13.47;7.63;;;-2.60;99.90;;;;;;5073271;28;20269;-48
2024/01/12 02:26:38;;;;;;;17.57;8.00;;;-2.60;99.90;;;;;;5039322;28;20215;-52
2024/01/12 02:29:04;;;;;;;15.50;7.83;;;-2.60;99.90;;;;;;5081271;28;20598;-48
2024/01/12 02:31:31;;;;;;;23.03;8.17;;;-2.50;99.90;;;;;;5075489;28;20200;-51
2024/01/12 02:33:58;;;;;;;10.93;7.27;;;-2.50;99.90;;;;;;5084302;28;20203;-50
2024/01/12 02:36:27;;;;;;;9.17;7.00;;;-2.50;99.90;;;;;;5068346;28;20238;-50
2024/01/12 02:38:55;;;;;;;16.57;7.60;;;-2.50;99.90;;;;;;5069296;28;20672;-51
2024/01/12 02:41:23;;;;;;;15.13;8.30;;;-2.60;99.90;;;;;;5038738;28;20232;-52
2024/01/12 02:43:50;;;;;;;15.00;7.73;;;-2.60;99.90;;;;;;5082692;28;20256;-46
2024/01/12 02:46:16;;;;;;;17.43;8.20;;;-2.60;99.90;;;;;;5075739;28;20229;-52
2024/01/12 02:48:43;;;;;;;15.30;8.13;;;-2.60;99.90;;;;;;5081118;28;20195;-46
2024/01/12 02:51:10;;;;;;;12.00;7.90;;;-2.60;99.90;;;;;;5075839;28;20287;-47
2024/01/12 02:53:37;;;;;;;13.23;7.80;;;-2.60;99.90;;;;;;5058273;28;20223;-48
2024/01/12 02:56:05;;;;;;;10.70;7.53;;;-2.60;99.90;;;;;;5048106;28;20223;-47
2024/01/12 02:58:32;;;;;;;20.23;7.60;;;-2.60;99.90;;;;;;5072173;28;20219;-53
2024/01/12 03:01:00;;;;;;;13.33;7.50;;;-2.60;99.90;;;;;;5083552;28;20199;-49
2024/01/12 03:03:26;;;;;;;19.47;8.00;;;-2.70;99.90;;;;;;5081368;28;20211;-51
2024/01/12 03:05:53;;;;;;;17.87;7.87;;;-2.70;99.90;;;;;;5072498;28;20274;-50
2024/01/12 03:08:20;;;;;;;13.87;8.57;;;-2.70;99.90;;;;;;5066044;28;20209;-53
2024/01/12 03:10:47;;;;;;;24.27;8.07;;;-2.70;99.90;;;;;;5049600;28;20210;-52
2024/01/12 03:13:15;;;;;;;25.40;7.87;;;-2.70;99.90;;;;;;5075477;28;20272;-49
2024/01/12 03:15:42;;;;;;;23.80;8.47;;;-2.70;99.90;;;;;;5080346;28;20216;-46
2024/01/12 03:18:09;;;;;;;11.03;7.70;;;-2.80;99.90;;;;;;5083154;28;20227;-45
2024/01/12 03:20:36;;;;;;;23.30;8.47;;;-2.70;99.90;;;;;;5067389;28;22770;-50
2024/01/12 03:23:02;;;;;;;24.17;8.60;;;-2.70;99.90;;;;;;5076043;28;20284;-49
2024/01/12 03:25:29;;;;;;;23.83;9.23;;;-2.70;99.90;;;;;;5043489;28;20203;-53
2024/01/12 03:27:58;;;;;;;30.10;8.63;;;-2.70;99.90;;;;;;5072710;28;20198;-45
2024/01/12 03:30:26;;;;;;;18.47;8.50;;;-2.80;99.90;;;;;;5080754;28;20199;-50
2024/01/12 03:32:53;;;;;;;24.40;8.13;;;-2.80;99.90;;;;;;5080744;28;20195;-50
2024/01/12 03:35:20;;;;;;;24.43;8.73;;;-2.70;99.90;;;;;;5074051;28;20575;-51
2024/01/12 03:37:47;;;;;;;20.57;8.37;;;-2.70;99.90;;;;;;5068129;28;20191;-46
2024/01/12 03:40:14;;;;;;;25.30;8.37;;;-2.70;99.90;;;;;;5072719;28;20260;-50
2024/01/12 03:42:40;;;;;;;19.60;8.27;;;-2.70;99.90;;;;;;5051615;28;20917;-49
2024/01/12 03:45:08;;;;;;;21.87;8.67;;;-2.70;99.90;;;;;;5075236;28;20563;-47
2024/01/12 03:47:37;;;;;;;17.40;8.43;;;-2.70;99.90;;;;;;5076644;28;20294;-51
2024/01/12 03:50:04;;;;;;;28.03;9.50;;;-2.70;99.90;;;;;;5074548;28;20203;-47
2024/01/12 03:52:31;;;;;;;27.20;7.83;;;-2.60;99.90;;;;;;5070680;28;20559;-52
2024/01/12 03:54:58;;;;;;;48.30;8.77;;;-2.70;99.90;;;;;;5076066;28;20226;-45
2024/01/12 03:57:24;;;;;;;50.77;10.97;;;-2.70;99.90;;;;;;5062705;28;20256;-51
2024/01/12 03:59:51;;;;;;;57.60;10.50;;;-2.70;99.90;;;;;;5064511;28;20348;-46
2024/01/12 04:02:18;;;;;;;35.53;9.03;;;-2.80;99.90;;;;;;5075034;28;20196;-50
2024/01/12 04:04:47;;;;;;;45.20;9.47;;;-2.80;99.90;;;;;;5073718;28;20203;-45
2024/01/12 04:07:13;;;;;;;17.87;7.40;;;-2.80;99.90;;;;;;5081899;28;20215;-49
2024/01/12 04:09:42;;;;;;;22.53;9.20;;;-2.80;99.90;;;;;;5071261;28;20243;-47
2024/01/12 04:12:09;;;;;;;26.77;8.60;;;-2.70;99.90;;;;;;5072784;28;20248;-48
2024/01/12 04:14:36;;;;;;;21.57;8.07;;;-2.70;99.90;;;;;;5041630;28;20994;-52
2024/01/12 04:17:03;;;;;;;22.70;8.20;;;-2.70;99.90;;;;;;5074792;28;20222;-45
2024/01/12 04:19:30;;;;;;;28.97;9.30;;;-2.60;99.90;;;;;;5075029;28;20214;-50
2024/01/12 04:21:58;;;;;;;14.77;7.77;;;-2.70;99.90;;;;;;5082196;28;20264;-47
2024/01/12 04:24:25;;;;;;;36.80;9.70;;;-2.70;99.90;;;;;;5075467;28;20737;-50
2024/01/12 04:26:51;;;;;;;16.80;7.97;;;-2.70;99.90;;;;;;5068929;28;20651;-50
2024/01/12 04:29:18;;;;;;;22.37;8.73;;;-2.70;99.90;;;;;;5046920;28;20221;-53
2024/01/12 04:31:45;;;;;;;32.10;8.27;;;-2.70;99.90;;;;;;5066745;28;20360;-52
2024/01/12 04:34:12;;;;;;;23.87;8.80;;;-2.70;99.90;;;;;;5080735;28;20199;-48
2024/01/12 04:36:39;;;;;;;22.57;8.77;;;-2.70;99.90;;;;;;5078680;28;20224;-46
2024/01/12 04:39:07;;;;;;;28.47;8.63;;;-2.70;99.90;;;;;;5081614;28;20214;-48
2024/01/12 04:41:33;;;;;;;16.73;8.27;;;-2.70;99.90;;;;;;5071006;28;20288;-48
2024/01/12 04:44:01;;;;;;;25.67;9.03;;;-2.70;99.90;;;;;;5038835;28;20217;-52
2024/01/12 04:46:28;;;;;;;38.00;10.63;;;-2.70;99.90;;;;;;5065545;28;20219;-48
2024/01/12 04:48:56;;;;;;;37.47;10.00;;;-2.60;99.90;;;;;;5080380;28;20203;-47
2024/01/12 04:51:23;;;;;;;47.17;10.30;;;-2.60;99.90;;;;;;5080175;28;20546;-51
2024/01/12 04:53:50;;;;;;;45.37;10.23;;;-2.60;99.90;;;;;;5080189;28;20283;-48
2024/01/12 04:56:18;;;;;;;32.10;11.13;;;-2.60;99.90;;;;;;5072916;28;20219;-51
2024/01/12 04:58:44;;;;;;;36.50;10.07;;;-2.60;99.90;;;;;;5058468;28;20245;-50
2024/01/12 05:01:11;;;;;;;41.43;10.47;;;-2.60;99.90;;;;;;5025060;28;20276;-45
2024/01/12 05:03:38;;;;;;;25.17;10.23;;;-2.50;99.90;;;;;;5077083;28;20233;-46
2024/01/12 05:06:05;;;;;;;33.23;10.90;;;-2.60;99.90;;;;;;5077287;28;20206;-48
2024/01/12 05:08:34;;;;;;;25.27;10.47;;;-2.50;99.90;;;;;;5074610;28;20251;-50
2024/01/12 05:11:01;;;;;;;43.73;10.20;;;-2.50;99.90;;;;;;5065569;28;20204;-48
2024/01/12 05:13:29;;;;;;;23.90;10.03;;;-2.50;99.90;;;;;;5064860;28;20279;-49
2024/01/12 05:15:56;;;;;;;16.93;9.83;;;-2.60;99.90;;;;;;5036810;28;20798;-51
2024/01/12 05:18:23;;;;;;;37.90;11.03;;;-2.50;99.90;;;;;;5080564;28;20610;-48
2024/01/12 05:20:49;;;;;;;35.40;10.33;;;-2.60;99.90;;;;;;5078867;28;20287;-53
2024/01/12 05:23:16;;;;;;;36.60;10.40;;;-2.60;99.90;;;;;;5084731;28;20193;-48
2024/01/12 05:25:43;;;;;;;21.93;9.80;;;-2.60;99.90;;;;;;5068132;28;20340;-54
2024/01/12 05:28:10;;;;;;;24.90;10.33;;;-2.60;99.90;;;;;;5056004;28;23338;-49
2024/01/12 05:30:38;;;;;;;39.63;10.50;;;-2.60;99.90;;;;;;5052551;28;20253;-48
2024/01/12 05:33:05;;;;;;;53.10;11.83;;;-2.60;99.90;;;;;;5069520;28;20194;-45
2024/01/12 05:35:32;;;;;;;43.40;10.33;;;-2.60;99.90;;;;;;5082080;28;20821;-46
2024/01/12 05:37:59;;;;;;;13.43;7.70;;;-2.60;99.90;;;;;;5074806;28;20355;-53
2024/01/12 05:40:26;;;;;;;23.53;9.67;;;-2.60;99.90;;;;;;5070815;28;20295;-52
2024/01/12 05:42:52;;;;;;;43.23;10.50;;;-2.50;99.90;;;;;;5072691;28;20202;-51
2024/01/12 05:45:19;;;;;;;31.63;9.00;;;-2.50;99.90;;;;;;5076277;28;20211;-45
2024/01/12 05:47:47;;;;;;;62.00;11.07;;;-2.50;99.90;;;;;;5048156;28;20250;-47
2024/01/12 05:50:14;;;;;;;27.30;8.57;;;-2.50;99.90;;;;;;5082702;28;21153;-48
2024/01/12 05:52:41;;;;;;;50.97;10.23;;;-2.60;99.90;;;;;;5076587;28;20207;-53
2024/01/12 05:55:08;;;;;;;58.70;11.63;;;-2.50;99.90;;;;;;5066227;28;20215;-52
2024/01/12 05:57:35;;;;;;;40.00;10.23;;;-2.60;99.90;;;;;;5085427;28;20214;-47
2024/01/12 06:00:04;;;;;;;22.07;8.67;;;-2.70;99.90;;;;;;5063017;28;20216;-50
2024/01/12 06:02:31;;;;;;;32.47;8.67;;;-2.60;99.90;;;;;;5056611;28;20214;-48
2024/01/12 06:05:00;;;;;;;63.67;10.63;;;-2.60;99.90;;;;;;5072675;28;20662;-49
2024/01/12 06:07:27;;;;;;;16.43;9.30;;;-2.60;99.90;;;;;;5072326;28;20243;-48
2024/01/12 06:09:54;;;;;;;25.73;8.80;;;-2.60;99.90;;;;;;5070205;28;20650;-50
2024/01/12 06:12:21;;;;;;;34.97;9.73;;;-2.60;99.90;;;;;;5077505;28;20212;-49
2024/01/12 06:14:48;;;;;;;30.37;9.17;;;-2.60;99.90;;;;;;5074799;28;20232;-50
2024/01/12 06:17:15;;;;;;;49.50;10.57;;;-2.60;99.90;;;;;;5044197;28;21952;-47
2024/01/12 06:19:42;;;;;;;14.37;7.50;;;-2.60;99.90;;;;;;5062510;28;20222;-52
2024/01/12 06:22:10;;;;;;;21.73;8.90;;;-2.60;99.90;;;;;;5077050;28;20199;-52
2024/01/12 06:24:37;;;;;;;18.53;7.90;;;-2.60;99.90;;;;;;5069258;28;20209;-50
2024/01/12 06:27:05;;;;;;;12.67;8.27;;;-2.60;99.90;;;;;;5068610;28;20304;-46
2024/01/12 06:29:32;;;;;;;14.47;6.97;;;-2.70;99.90;;;;;;5073095;28;20198;-51
2024/01/12 06:31:58;;;;;;;20.37;8.13;;;-2.60;99.90;;;;;;5070874;28;20215;-50
2024/01/12 06:34:25;;;;;;;22.27;7.80;;;-2.60;99.90;;;;;;5041474;28;20271;-52
2024/01/12 06:36:52;;;;;;;13.13;7.60;;;-2.70;99.90;;;;;;5074890;28;20839;-49
2024/01/12 06:39:20;;;;;;;12.30;7.67;;;-2.60;99.90;;;;;;5083612;28;20218;-49
2024/01/12 06:41:47;;;;;;;19.13;7.63;;;-2.60;99.90;;;;;;5066878;28;20202;-46
2024/01/12 06:44:14;;;;;;;11.13;7.70;;;-2.60;99.90;;;;;;5075841;28;20211;-48
2024/01/12 06:46:43;;;;;;;13.63;8.27;;;-2.60;99.90;;;;;;5070027;28;20324;-46
2024/01/12 06:49:10;;;;;;;26.47;9.20;;;-2.60;99.90;;;;;;5044127;28;20203;-47
2024/01/12 06:51:37;;;;;;;18.37;7.60;;;-2.60;99.90;;;;;;5067634;28;20339;-50
2024/01/12 06:54:04;;;;;;;29.93;9.03;;;-2.60;99.90;;;;;;5083459;28;20276;-46
2024/01/12 06:56:37;;;;;;;24.43;8.53;;;-2.60;99.90;;;;;;5066577;28;20250;-50
2024/01/12 06:59:04;;;;;;;23.30;9.03;;;-2.60;99.90;;;;;;5082203;28;20265;-51
2024/01/12 07:01:31;;;;;;;22.80;7.80;;;-2.50;99.90;;;;;;5064660;28;20203;-54
2024/01/12 07:03:58;;;;;;;32.73;8.70;;;-2.60;99.90;;;;;;5063184;28;20269;-52
2024/01/12 07:06:25;;;;;;;32.33;9.53;;;-2.60;99.90;;;;;;5029793;28;20351;-50
2024/01/12 07:08:53;;;;;;;48.80;10.53;;;-2.60;99.90;;;;;;5076170;28;20194;-50
2024/01/12 07:11:21;;;;;;;30.93;8.63;;;-2.60;99.90;;;;;;5068777;28;20200;-52
2024/01/12 07:13:50;;;;;;;32.30;9.07;;;-2.50;99.90;;;;;;5085156;28;20254;-56
2024/01/12 07:16:18;;;;;;;26.90;8.60;;;-2.50;99.90;;;;;;5070075;28;20322;-53
2024/01/12 07:18:45;;;;;;;29.73;9.40;;;-2.40;99.90;;;;;;5060724;28;20235;-55
2024/01/12 07:21:16;;;;;;;17.50;8.27;;;-2.40;99.90;;;;;;5045993;28;20215;-48
2024/01/12 07:23:44;;;;;;;22.63;9.47;;;-2.40;99.90;;;;;;5081045;28;20196;-51
2024/01/12 07:26:13;;;;;;;20.53;8.73;;;-2.40;99.90;;;;;;5075685;28;20301;-50
2024/01/12 07:28:41;;;;;;;17.80;8.43;;;-2.30;99.90;;;;;;5072285;28;20227;-52
2024/01/12 07:31:10;;;;;;;25.33;8.60;;;-2.20;99.90;;;;;;5064742;28;20210;-50
2024/01/12 07:33:37;;;;;;;23.07;9.20;;;-2.20;99.90;;;;;;5068969;28;20216;-53
2024/01/12 07:36:06;;;;;;;21.60;9.23;;;-2.20;99.90;;;;;;5038913;28;21017;-48
2024/01/12 07:38:33;;;;;;;19.87;8.83;;;-2.10;99.90;;;;;;5078157;28;20278;-55
2024/01/12 07:41:03;;;;;;;23.87;9.17;;;-2.10;99.90;;;;;;5080766;28;20253;-50
2024/01/12 07:43:31;;;;;;;23.40;9.43;;;-2.10;99.90;;;;;;5069435;28;20200;-55
2024/01/12 07:45:59;;;;;;;22.97;8.90;;;-2.10;99.90;;;;;;5064602;28;20821;-54
2024/01/12 07:48:30;;;;;;;17.33;9.03;;;-2.00;99.90;;;;;;5071925;28;20205;-46
2024/01/12 07:50:58;;;;;;;22.07;9.00;;;-2.00;99.90;;;;;;5044595;28;22521;-50
2024/01/12 07:53:30;;;;;;;17.50;8.60;;;-1.90;99.90;;;;;;5072047;28;20216;-49
2024/01/12 07:55:57;;;;;;;16.37;7.30;;;-1.90;99.90;;;;;;5078628;28;20226;-46
2024/01/12 07:58:25;;;;;;;30.23;8.90;;;-1.80;99.90;;;;;;5066067;28;20202;-49
2024/01/12 08:00:52;;;;;;;14.23;7.67;;;-1.80;99.90;;;;;;5065805;28;20368;-48
2024/01/12 08:03:20;;;;;;;14.87;7.40;;;-1.80;99.90;;;;;;5082299;28;20196;-49
2024/01/12 08:05:50;;;;;;;16.37;8.13;;;-1.70;99.90;;;;;;5037278;28;20705;-52
2024/01/12 08:08:21;;;;;;;29.37;8.40;;;-1.70;99.90;;;;;;5066017;28;20214;-50
2024/01/12 08:10:52;;;;;;;14.00;7.10;;;-1.60;99.90;;;;;;5077410;28;20294;-49
2024/01/12 08:13:20;;;;;;;15.00;7.07;;;-1.50;99.90;;;;;;5068129;28;20202;-57
2024/01/12 08:15:48;;;;;;;20.57;7.60;;;-1.50;99.90;;;;;;5067624;28;20222;-52
2024/01/12 08:18:15;;;;;;;26.50;7.70;;;-1.40;99.90;;;;;;5079443;28;20229;-53
2024/01/12 08:20:42;;;;;;;24.27;8.03;;;-1.40;99.90;;;;;;5063967;28;20718;-49
2024/01/12 08:23:12;;;;;;;18.03;8.07;;;-1.30;99.90;;;;;;5032983;28;20429;-49
2024/01/12 08:25:40;;;;;;;17.70;7.30;;;-1.30;99.90;;;;;;5074647;28;20219;-52
2024/01/12 08:28:07;;;;;;;25.90;8.00;;;-1.20;99.90;;;;;;5067287;28;20217;-48
2024/01/12 08:30:35;;;;;;;20.57;7.93;;;-1.10;99.90;;;;;;5063550;28;20774;-52
2024/01/12 08:33:02;;;;;;;20.67;8.67;;;-1.10;99.90;;;;;;5114392;27;20217;-49
2024/01/12 08:35:30;;;;;;;23.63;8.20;;;-1.00;99.90;;;;;;5067345;28;20568;-54
2024/01/12 08:37:57;;;;;;;22.10;8.40;;;-1.00;99.90;;;;;;5039700;28;20206;-50
2024/01/12 08:40:25;;;;;;;21.63;8.07;;;-1.00;99.90;;;;;;5074068;28;20227;-54
2024/01/12 08:42:53;;;;;;;23.90;9.03;;;-1.00;99.90;;;;;;5076518;28;20906;-47
2024/01/12 08:45:21;;;;;;;29.77;8.90;;;-0.90;99.90;;;;;;5073522;28;20216;-50
2024/01/12 08:47:58;;;;;;;26.80;9.37;;;-0.90;99.90;;;;;;5068594;28;20272;-50
2024/01/12 08:50:25;;;;;;;33.77;9.60;;;-0.80;99.90;;;;;;5068996;28;20249;-54
2024/01/12 08:52:56;;;;;;;27.07;8.57;;;-0.80;99.90;;;;;;5042707;28;20213;-51
2024/01/12 08:55:25;;;;;;;23.10;8.40;;;-0.80;99.90;;;;;;5065240;28;20204;-53
2024/01/12 08:57:53;;;;;;;26.57;8.77;;;-0.70;99.90;;;;;;5078734;28;20198;-50
2024/01/12 09:00:20;;;;;;;25.03;8.43;;;-0.70;99.90;;;;;;5072235;28;20273;-52
2024/01/12 09:02:47;;;;;;;21.03;8.63;;;-0.60;99.90;;;;;;5071743;28;20285;-45
2024/01/12 09:05:15;;;;;;;24.97;8.67;;;-0.60;99.90;;;;;;5081146;28;20574;-49
2024/01/12 09:07:42;;;;;;;28.20;8.27;;;-0.50;99.90;;;;;;5032196;28;20231;-51
2024/01/12 09:10:10;;;;;;;23.03;8.00;;;-0.50;99.90;;;;;;5067574;28;20671;-51
2024/01/12 09:12:39;;;;;;;29.27;9.43;;;-0.40;99.90;;;;;;5079144;28;20649;-48
2024/01/12 09:15:08;;;;;;;29.03;9.20;;;-0.30;99.90;;;;;;5078236;28;20232;-48
2024/01/12 09:17:36;;;;;;;30.60;9.37;;;-0.30;99.90;;;;;;5072966;28;20693;-53
2024/01/12 09:20:04;;;;;;;28.37;9.57;;;-0.30;99.90;;;;;;5082848;28;21013;-49
2024/01/12 09:22:32;;;;;;;35.87;10.03;;;-0.20;99.90;;;;;;5048460;28;20206;-52
2024/01/12 09:25:00;;;;;;;33.80;10.27;;;-0.20;99.90;;;;;;5064344;28;20450;-47
2024/01/12 09:27:27;;;;;;;28.73;8.43;;;-0.20;99.90;;;;;;5084226;28;20711;-49
2024/01/12 09:29:56;;;;;;;34.03;9.33;;;-0.10;99.90;;;;;;5083991;28;20190;-47
2024/01/12 09:32:23;;;;;;;32.77;9.00;;;-0.10;99.90;;;;;;5068668;28;20198;-53
2024/01/12 09:34:51;;;;;;;35.70;10.17;;;0.00;99.90;;;;;;5079285;28;20787;-52
2024/01/12 09:37:19;;;;;;;31.77;9.13;;;0.00;99.90;;;;;;5077376;28;20217;-54
2024/01/12 09:39:48;;;;;;;32.73;9.67;;;0.00;99.90;;;;;;5052848;28;20900;-47
2024/01/12 09:42:17;;;;;;;36.87;10.60;;;0.10;99.90;;;;;;5077607;28;20206;-49
2024/01/12 09:44:46;;;;;;;31.53;9.47;;;0.10;99.90;;;;;;5082543;28;20209;-49
2024/01/12 09:47:16;;;;;;;36.23;10.63;;;0.20;99.90;;;;;;5077435;28;20301;-49
2024/01/12 09:49:44;;;;;;;25.17;9.70;;;0.20;99.90;;;;;;5073851;28;20198;-49
2024/01/12 09:52:12;;;;;;;29.53;9.97;;;0.20;99.90;;;;;;5080994;28;20212;-51
2024/01/12 09:54:40;;;;;;;39.03;10.07;;;0.30;99.90;;;;;;5048782;28;20209;-50
2024/01/12 09:57:09;;;;;;;33.67;10.63;;;0.30;99.90;;;;;;5075632;28;20783;-50
2024/01/12 09:59:38;;;;;;;26.30;10.37;;;0.40;99.90;;;;;;5080131;28;20198;-47
2024/01/12 10:02:08;;;;;;;30.20;9.53;;;0.40;99.90;;;;;;5073672;28;20303;-48
2024/01/12 10:04:36;;;;;;;27.13;10.20;;;0.40;99.90;;;;;;5074989;28;20843;-50
2024/01/12 10:07:04;;;;;;;30.50;9.97;;;0.50;99.90;;;;;;5082453;28;20304;-49
2024/01/12 10:09:31;;;;;;;28.73;9.30;;;0.50;99.90;;;;;;5053350;28;20220;-48
2024/01/12 10:11:59;;;;;;;29.23;9.97;;;0.50;99.90;;;;;;5077343;28;21024;-52
2024/01/12 10:14:26;;;;;;;30.47;10.53;;;0.60;99.90;;;;;;5084016;28;20570;-50
2024/01/12 10:16:55;;;;;;;32.37;10.37;;;0.60;99.90;;;;;;5077922;28;20926;-50
2024/01/12 10:19:23;;;;;;;27.33;10.27;;;0.60;99.90;;;;;;5068780;28;20290;-48
2024/01/12 10:21:51;;;;;;;32.77;11.80;;;0.60;99.90;;;;;;5078803;28;20240;-47
2024/01/12 10:24:21;;;;;;;29.77;10.83;;;0.60;99.90;;;;;;5082821;28;20677;-47
2024/01/12 10:26:50;;;;;;;28.40;10.53;;;0.70;99.90;;;;;;5055374;28;20221;-47
2024/01/12 10:29:18;;;;;;;32.87;10.53;;;0.70;99.90;;;;;;5083295;28;20201;-47
2024/01/12 10:31:47;;;;;;;31.47;12.50;;;0.70;99.90;;;;;;5072788;28;20206;-47
2024/01/12 10:34:15;;;;;;;28.30;10.43;;;0.80;99.90;;;;;;5077988;28;20251;-47
2024/01/12 10:36:42;;;;;;;28.00;10.53;;;0.80;99.90;;;;;;5078422;28;20198;-50
2024/01/12 10:39:11;;;;;;;33.67;15.90;;;0.80;99.90;;;;;;5083708;28;20206;-49
2024/01/12 10:41:41;;;;;;;25.57;10.60;;;0.90;99.90;;;;;;5049380;28;20230;-50
2024/01/12 10:44:08;;;;;;;29.33;11.13;;;0.80;99.90;;;;;;5073801;28;20198;-50
2024/01/12 10:46:36;;;;;;;30.67;10.63;;;0.90;99.90;;;;;;5073883;28;20217;-50
2024/01/12 10:49:16;;;;;;;28.13;11.30;;;0.90;99.90;;;;;;5076033;28;20189;-52
2024/01/12 10:51:53;;;;;;;26.77;10.37;;;0.90;99.90;;;;;;5073262;28;20254;-47
2024/01/12 10:54:29;;;;;;;20.70;9.27;;;0.90;99.90;;;;;;5083908;28;20255;-50
2024/01/12 10:56:56;;;;;;;27.73;10.67;;;1.00;99.90;;;;;;5047201;28;20232;-47
2024/01/12 10:59:22;;;;;;;22.90;9.60;;;1.00;99.90;;;;;;5064805;28;20942;-47
2024/01/12 11:01:49;;;;;;;26.97;9.77;;;1.00;99.90;;;;;;5080911;28;20226;-49
2024/01/12 11:04:17;;;;;;;26.40;11.93;;;1.00;99.90;;;;;;5075015;28;20290;-48
2024/01/12 11:06:45;;;;;;;20.20;9.80;;;1.00;99.90;;;;;;5080527;28;20235;-47
2024/01/12 11:09:16;;;;;;;21.83;9.27;;;1.10;99.90;;;;;;5080856;28;20194;-50
2024/01/12 11:11:52;;;;;;;28.77;9.90;;;1.10;99.90;;;;;;5051617;28;20190;-48
2024/01/12 11:14:20;;;;;;;23.70;9.20;;;1.10;99.90;;;;;;5065525;28;20601;-48
2024/01/12 11:16:47;;;;;;;24.50;9.40;;;1.10;99.90;;;;;;5081840;28;20210;-49
2024/01/12 11:19:14;;;;;;;23.17;10.17;;;1.10;99.90;;;;;;5081655;28;20217;-48
2024/01/12 11:21:42;;;;;;;20.00;9.60;;;1.10;99.90;;;;;;5077940;28;20274;-48
2024/01/12 11:24:10;;;;;;;26.40;9.77;;;1.10;99.90;;;;;;5081120;28;20198;-50
2024/01/12 11:26:37;;;;;;;20.93;10.30;;;1.20;99.90;;;;;;5076328;28;20224;-51
2024/01/12 11:29:07;;;;;;;24.40;9.80;;;1.20;99.90;;;;;;5046964;28;20276;-47
2024/01/12 11:31:34;;;;;;;20.33;9.77;;;1.20;99.90;;;;;;5076572;28;20583;-48
2024/01/12 11:34:02;;;;;;;24.63;9.90;;;1.20;99.90;;;;;;5077252;28;20242;-47
2024/01/12 11:36:29;;;;;;;20.33;9.43;;;1.30;99.90;;;;;;5074909;28;20222;-48
2024/01/12 11:38:59;;;;;;;22.70;9.27;;;1.30;99.90;;;;;;5079529;28;20648;-48
2024/01/12 11:41:29;;;;;;;21.23;9.87;;;1.30;99.90;;;;;;5075104;28;20624;-47
2024/01/12 11:43:56;;;;;;;23.27;10.17;;;1.40;99.90;;;;;;5048793;28;20217;-46
2024/01/12 11:46:26;;;;;;;25.87;9.63;;;1.40;99.90;;;;;;5076188;28;20706;-49
2024/01/12 11:48:53;;;;;;;21.03;10.37;;;1.40;99.90;;;;;;5079487;28;20700;-50
2024/01/12 11:51:24;;;;;;;23.03;10.13;;;1.50;99.90;;;;;;5081637;28;20235;-47
2024/01/12 11:53:53;;;;;;;19.40;9.37;;;1.50;99.90;;;;;;5067145;28;20839;-50
2024/01/12 11:56:21;;;;;;;19.37;9.63;;;1.50;99.90;;;;;;5075098;28;20218;-48
2024/01/12 11:58:48;;;;;;;19.13;9.07;;;1.50;99.90;;;;;;5063513;28;20198;-46
2024/01/12 12:01:15;;;;;;;25.07;10.53;;;1.50;99.90;;;;;;5063359;28;20224;-49
2024/01/12 12:03:44;;;;;;;20.67;9.57;;;1.60;99.90;;;;;;5082182;28;20259;-48
2024/01/12 12:06:12;;;;;;;23.10;8.87;;;1.60;99.90;;;;;;5078964;28;20209;-51
2024/01/12 12:08:39;;;;;;;18.50;8.77;;;1.60;99.90;;;;;;5054885;28;20206;-46
2024/01/12 12:11:06;;;;;;;21.70;9.50;;;1.70;99.90;;;;;;5077612;28;20528;-48
2024/01/12 12:13:35;;;;;;;23.97;9.53;;;1.70;99.90;;;;;;5079985;28;20209;-48
2024/01/12 12:16:03;;;;;;;22.00;9.37;;;1.70;99.90;;;;;;5051746;28;20238;-49
2024/01/12 12:18:30;;;;;;;24.73;9.93;;;1.70;99.90;;;;;;5077846;28;20208;-50
2024/01/12 12:21:01;;;;;;;20.77;9.40;;;1.80;99.90;;;;;;5077280;28;20190;-48
2024/01/12 12:23:28;;;;;;;21.63;9.90;;;1.80;99.90;;;;;;5068511;28;20191;-50
2024/01/12 12:25:55;;;;;;;25.27;9.00;;;1.80;99.90;;;;;;5074532;28;20947;-48
2024/01/12 12:28:22;;;;;;;22.43;9.73;;;1.90;99.90;;;;;;5081047;28;20220;-51
2024/01/12 12:30:51;;;;;;;20.80;10.00;;;1.90;99.90;;;;;;5049966;28;20296;-47
2024/01/12 12:33:18;;;;;;;26.73;10.23;;;1.90;99.90;;;;;;5079620;28;20198;-52
2024/01/12 12:35:45;;;;;;;27.83;9.77;;;1.90;99.90;;;;;;5072539;28;20264;-50
2024/01/12 12:38:13;;;;;;;25.67;10.07;;;1.90;99.90;;;;;;5076364;28;20681;-48
2024/01/12 12:40:40;;;;;;;20.93;9.10;;;2.00;99.90;;;;;;5071148;28;20252;-48